Time;durP1;ratioP1;P1;durP2;ratioP2;P2;SDS_P1;SDS_P2;PMS_P1;PMS_P2;Temp;Humidity;BMP_temperature;BMP_pressure;BME280_temperature;BME280_humidity;BME280_pressure;Samples;Min_cycle;Max_cycle;Signal;HPM_P1;HPM_P2
2022/06/18 00:01:33;;;;;;;2.20;2.00;;;;;;;18.14;57.51;101299.88;5011889;28;20030;-82
2022/06/18 00:04:03;;;;;;;2.05;1.95;;;;;;;18.15;57.13;101293.69;5011673;28;20088;-82
2022/06/18 00:06:29;;;;;;;2.05;1.92;;;;;;;18.14;57.55;101297.25;5011588;28;20029;-82
2022/06/18 00:08:55;;;;;;;2.28;2.17;;;;;;;18.15;57.74;101285.75;5011514;28;20490;-82
2022/06/18 00:14:04;;;;;;;2.10;2.00;;;;;;;18.16;56.86;101279.53;5025970;28;20559;-82
2022/06/18 00:16:31;;;;;;;2.60;1.98;;;;;;;18.17;57.04;101270.69;5011227;28;20109;-82
2022/06/18 00:18:57;;;;;;;2.40;2.20;;;;;;;18.18;56.56;101277.69;5011195;28;20399;-82
2022/06/18 00:21:24;;;;;;;2.10;2.00;;;;;;;18.21;57.08;101274.94;5010856;28;20026;-82
2022/06/18 00:23:49;;;;;;;2.58;1.92;;;;;;;18.19;57.25;101271.50;5011319;28;20036;-82
2022/06/18 00:26:15;;;;;;;2.13;2.00;;;;;;;18.21;57.00;101267.84;5010907;28;20407;-83
2022/06/18 00:28:41;;;;;;;2.08;1.95;;;;;;;18.22;57.05;101274.00;5011079;28;20037;-83
2022/06/18 00:31:06;;;;;;;3.08;2.88;;;;;;;18.21;58.15;101267.00;5010735;28;20096;-82
2022/06/18 00:33:35;;;;;;;2.13;2.03;;;;;;;18.20;57.69;101265.25;5010880;28;20113;-82
2022/06/18 00:36:02;;;;;;;2.10;2.00;;;;;;;18.18;57.47;101262.69;5010919;28;20022;-82
2022/06/18 00:38:31;;;;;;;5.88;2.15;;;;;;;18.19;57.37;101261.78;5027282;28;20658;-83
2022/06/18 00:40:58;;;;;;;2.05;1.95;;;;;;;18.18;57.36;101256.53;5027054;28;20399;-82
2022/06/18 00:43:28;;;;;;;2.00;1.77;;;;;;;18.16;57.14;101253.09;5010861;28;20045;-82
2022/06/18 00:46:02;;;;;;;2.10;1.80;;;;;;;18.16;57.11;101247.81;5010621;28;20455;-82
2022/06/18 00:48:43;;;;;;;4.35;2.00;;;;;;;18.16;57.09;101253.09;5010660;28;20116;-82
2022/06/18 00:51:25;;;;;;;2.05;1.95;;;;;;;18.15;56.29;101246.09;5010524;28;20040;-82
2022/06/18 00:54:02;;;;;;;2.00;1.90;;;;;;;18.14;57.54;101239.09;5010705;28;20090;-83
2022/06/18 00:56:35;;;;;;;1.88;1.77;;;;;;;18.12;57.29;101240.91;5027277;28;20018;-82
2022/06/18 00:59:09;;;;;;;1.92;1.83;;;;;;;18.10;57.42;101238.34;5027077;28;20080;-82
2022/06/18 01:01:38;;;;;;;2.20;2.10;;;;;;;18.08;58.42;101235.75;5010549;28;20124;-83
2022/06/18 01:04:27;;;;;;;1.90;1.80;;;;;;;18.07;58.46;101233.16;5010284;28;20030;-82
2022/06/18 01:07:25;;;;;;;2.20;2.00;;;;;;;18.04;58.76;101220.94;5010426;28;20041;-82
2022/06/18 01:09:51;;;;;;;2.35;2.25;;;;;;;18.03;59.01;101210.44;4990100;28;20045;-82
2022/06/18 01:12:17;;;;;;;2.25;2.05;;;;;;;18.03;58.07;101211.28;5026795;28;20026;-82
2022/06/18 01:14:43;;;;;;;1.98;1.88;;;;;;;18.01;58.58;101210.50;5013322;28;20025;-82
2022/06/18 01:17:08;;;;;;;2.50;2.30;;;;;;;18.00;57.91;101211.41;5014531;28;20037;-83
2022/06/18 01:19:40;;;;;;;2.22;2.13;;;;;;;17.98;58.46;101207.09;5014173;28;20038;-83
2022/06/18 01:22:42;;;;;;;2.00;1.90;;;;;;;17.96;57.49;101209.81;5013956;28;20041;-82
2022/06/18 01:25:08;;;;;;;2.08;1.90;;;;;;;17.97;57.79;101206.25;5014099;28;20026;-82
2022/06/18 01:27:35;;;;;;;2.28;2.00;;;;;;;17.95;57.54;101205.44;5013844;28;20060;-82
2022/06/18 01:30:06;;;;;;;1.80;1.70;;;;;;;17.96;57.65;101199.22;4997370;28;20065;-82
2022/06/18 01:32:31;;;;;;;1.98;1.88;;;;;;;17.98;57.88;101197.38;5014027;28;20024;-83
2022/06/18 01:34:57;;;;;;;1.98;1.77;;;;;;;17.98;57.51;101192.09;5014240;28;20027;-83
2022/06/18 01:37:22;;;;;;;2.40;2.25;;;;;;;17.98;57.89;101186.78;5030709;28;20064;-82
2022/06/18 01:39:48;;;;;;;2.05;1.95;;;;;;;17.97;58.10;101185.09;5014413;28;20379;-82
2022/06/18 01:42:22;;;;;;;2.00;1.83;;;;;;;17.98;57.08;101176.22;5014148;28;20100;-82
2022/06/18 01:44:55;;;;;;;2.23;2.13;;;;;;;17.97;57.47;101185.09;5013880;28;20161;-82
2022/06/18 01:47:41;;;;;;;2.00;1.90;;;;;;;17.98;57.58;101184.16;5013745;28;20387;-82
2022/06/18 01:50:25;;;;;;;1.88;1.77;;;;;;;17.99;57.32;101161.25;5013936;28;20505;-82
2022/06/18 01:52:55;;;;;;;2.35;1.80;;;;;;;17.99;57.62;101166.53;5013371;28;20064;-82
2022/06/18 01:55:27;;;;;;;2.00;1.80;;;;;;;18.01;57.17;101157.63;5013464;28;20116;-82
2022/06/18 01:57:55;;;;;;;2.05;1.95;;;;;;;18.00;57.83;101162.97;5013419;28;20037;-82
2022/06/18 02:00:25;;;;;;;3.03;1.85;;;;;;;17.96;57.36;101154.31;5013011;28;20164;-82
2022/06/18 02:02:52;;;;;;;2.00;1.90;;;;;;;17.94;57.78;101153.47;5013127;28;20495;-82
2022/06/18 02:05:18;;;;;;;1.98;1.88;;;;;;;17.94;58.05;101150.84;5012867;28;20022;-82
2022/06/18 02:07:45;;;;;;;2.22;2.13;;;;;;;17.91;58.25;101150.94;5012998;28;20172;-82
2022/06/18 02:10:15;;;;;;;2.10;2.00;;;;;;;17.89;57.67;101142.22;5012902;28;20076;-82
2022/06/18 02:12:41;;;;;;;1.73;1.63;;;;;;;17.89;57.93;101152.81;5013029;28;20044;-82
2022/06/18 02:15:31;;;;;;;1.98;1.88;;;;;;;17.87;57.53;101144.06;5012898;28;20124;-82
2022/06/18 02:17:59;;;;;;;2.22;2.03;;;;;;;17.86;58.02;101139.69;4996574;28;20026;-82
2022/06/18 02:20:27;;;;;;;2.05;1.95;;;;;;;17.89;57.29;101135.16;5011688;28;20143;-82
2022/06/18 02:22:54;;;;;;;2.17;1.98;;;;;;;17.88;57.36;101132.56;5012724;28;20032;-82
2022/06/18 02:25:23;;;;;;;1.90;1.80;;;;;;;17.88;58.37;101132.56;5013115;28;20515;-82
2022/06/18 02:27:51;;;;;;;1.92;1.83;;;;;;;17.87;57.86;101131.72;5012504;28;20032;-82
2022/06/18 02:30:19;;;;;;;2.17;2.08;;;;;;;17.85;58.07;101133.56;5012423;28;20585;-82
2022/06/18 02:33:20;;;;;;;1.75;1.65;;;;;;;17.87;58.54;101125.56;5029488;28;20029;-82
2022/06/18 02:35:45;;;;;;;2.00;1.90;;;;;;;17.85;58.62;101125.63;5004608;28;20053;-82
2022/06/18 02:38:22;;;;;;;4.38;2.10;;;;;;;17.86;58.13;101119.44;5012508;28;20030;-82
2022/06/18 02:40:48;;;;;;;2.00;1.90;;;;;;;17.86;58.59;101113.25;5012351;28;20057;-82
2022/06/18 02:43:14;;;;;;;2.28;2.17;;;;;;;17.83;59.01;101116.03;5013188;28;20100;-82
2022/06/18 02:45:41;;;;;;;1.92;1.83;;;;;;;17.82;59.09;101111.66;5013285;28;20026;-82
2022/06/18 02:48:08;;;;;;;1.85;1.75;;;;;;;17.80;58.38;101113.53;5013177;28;20030;-82
2022/06/18 02:50:38;;;;;;;2.38;2.17;;;;;;;17.78;58.92;101115.34;5013632;28;20439;-82
2022/06/18 02:53:04;;;;;;;2.30;1.83;;;;;;;17.78;59.68;101112.72;5030134;28;20028;-82
2022/06/18 02:55:29;;;;;;;2.45;2.35;;;;;;;17.74;59.77;101112.84;5013367;28;20030;-82
2022/06/18 02:57:59;;;;;;;2.10;2.00;;;;;;;17.71;60.32;101107.69;5013118;28;20035;-83
2022/06/18 03:00:24;;;;;;;1.90;1.80;;;;;;;17.70;59.00;101105.97;5029414;28;20026;-83
2022/06/18 03:02:50;;;;;;;2.40;2.20;;;;;;;17.71;59.70;101104.16;5013282;28;20088;-82
2022/06/18 03:05:34;;;;;;;1.90;1.80;;;;;;;17.72;59.03;101101.50;4996495;28;20033;-83
2022/06/18 03:07:59;;;;;;;1.83;1.73;;;;;;;17.72;59.40;101100.59;5013236;28;20515;-82
2022/06/18 03:13:09;;;;;;;2.08;1.98;;;;;;;17.71;59.95;101089.19;5027849;28;20040;-82
2022/06/18 03:15:35;;;;;;;2.15;2.05;;;;;;;17.69;59.74;101098.09;5012986;28;20026;-82
2022/06/18 03:18:01;;;;;;;2.42;2.08;;;;;;;17.68;59.36;101091.97;5012629;28;20080;-82
2022/06/18 03:20:48;;;;;;;1.90;1.80;;;;;;;17.69;58.95;101091.03;5012742;28;20029;-82
2022/06/18 03:23:16;;;;;;;2.58;1.75;;;;;;;17.72;59.54;101092.69;5013000;28;20033;-82
2022/06/18 03:25:41;;;;;;;1.88;1.77;;;;;;;17.72;60.02;101085.63;5012870;28;20057;-83
2022/06/18 03:28:08;;;;;;;2.15;1.95;;;;;;;17.73;59.72;101089.97;5029540;28;20057;-82
2022/06/18 03:30:33;;;;;;;1.90;1.80;;;;;;;17.73;59.18;101087.34;5012707;28;20029;-82
2022/06/18 03:32:58;;;;;;;3.70;1.83;;;;;;;17.72;59.67;101085.63;5012723;28;20022;-82
2022/06/18 03:35:24;;;;;;;3.13;1.98;;;;;;;17.76;58.78;101088.16;5029200;28;20360;-83
2022/06/18 03:37:49;;;;;;;1.88;1.77;;;;;;;17.80;58.58;101087.09;5012665;28;20045;-83
2022/06/18 03:40:15;;;;;;;2.75;1.90;;;;;;;17.83;58.19;101086.97;5012861;28;20096;-82
2022/06/18 03:42:41;;;;;;;2.20;1.58;;;;;;;17.86;59.09;101082.44;5012848;28;20026;-82
2022/06/18 03:45:07;;;;;;;1.90;1.50;;;;;;;17.87;58.69;101089.44;5013143;28;20545;-82
2022/06/18 03:47:34;;;;;;;2.55;1.90;;;;;;;17.94;57.70;101090.06;5012777;28;20068;-82
2022/06/18 03:49:59;;;;;;;3.35;2.10;;;;;;;17.98;58.31;101086.38;4996298;28;20033;-82
2022/06/18 03:52:25;;;;;;;2.65;1.80;;;;;;;18.04;58.16;101085.28;5077985;23;20056;-80
2022/06/18 03:54:50;;;;;;;1.90;1.80;;;;;;;18.07;58.34;101088.63;5035838;28;20067;-80
2022/06/18 03:57:17;;;;;;;1.92;1.75;;;;;;;18.14;58.25;101089.25;5052370;28;20079;-80
2022/06/18 03:59:43;;;;;;;2.88;1.90;;;;;;;18.17;58.05;101088.25;5035806;28;20033;-80
2022/06/18 04:02:09;;;;;;;1.80;1.70;;;;;;;18.22;58.71;101083.66;5052232;28;20059;-80
2022/06/18 04:04:34;;;;;;;2.00;1.55;;;;;;;18.30;58.29;101092.13;5035311;28;20470;-81
2022/06/18 04:07:00;;;;;;;1.67;1.58;;;;;;;18.36;57.42;101096.28;5035438;28;20390;-79
2022/06/18 04:09:26;;;;;;;1.90;1.80;;;;;;;18.42;57.84;101091.59;5035088;28;20039;-80
2022/06/18 04:11:51;;;;;;;1.92;1.73;;;;;;;18.49;58.12;101100.13;5035564;28;20020;-80
2022/06/18 04:14:16;;;;;;;1.77;1.65;;;;;;;18.55;57.85;101091.91;5035745;28;20543;-79
2022/06/18 04:16:42;;;;;;;2.00;1.90;;;;;;;18.63;57.23;101096.88;5035639;28;20071;-80
2022/06/18 04:19:10;;;;;;;2.08;1.88;;;;;;;18.73;57.31;101090.28;5035747;28;20477;-80
2022/06/18 04:21:35;;;;;;;1.90;1.80;;;;;;;18.75;57.92;101098.13;5035562;28;20036;-79
2022/06/18 04:24:00;;;;;;;2.25;1.92;;;;;;;18.81;57.38;101094.34;5035508;28;20024;-79
2022/06/18 04:26:26;;;;;;;2.00;1.90;;;;;;;18.83;58.09;101088.06;5035446;28;20505;-80
2022/06/18 04:28:52;;;;;;;1.80;1.70;;;;;;;18.91;57.20;101087.78;5035323;28;20394;-79
2022/06/18 04:31:17;;;;;;;2.22;2.00;;;;;;;18.93;56.90;101091.19;5034979;28;20024;-80
2022/06/18 04:33:43;;;;;;;2.88;1.85;;;;;;;18.97;57.05;101084.81;5051918;28;20031;-81
2022/06/18 04:36:38;;;;;;;2.30;1.77;;;;;;;19.03;57.07;101087.22;5034889;28;20025;-80
2022/06/18 04:39:04;;;;;;;1.80;1.70;;;;;;;19.08;57.45;101077.25;5051326;28;20429;-80
2022/06/18 04:41:30;;;;;;;1.90;1.80;;;;;;;19.11;56.78;101086.00;5035156;28;20033;-81
2022/06/18 04:43:55;;;;;;;2.53;1.90;;;;;;;19.12;56.79;101085.91;5035289;28;20128;-80
2022/06/18 04:46:21;;;;;;;1.90;1.80;;;;;;;19.16;56.91;101081.34;5035400;28;20028;-80
2022/06/18 04:48:47;;;;;;;2.15;2.05;;;;;;;19.16;57.01;101086.66;5036324;28;20024;-80
2022/06/18 04:51:13;;;;;;;2.20;2.10;;;;;;;19.15;57.39;101090.22;5038668;28;20163;-80
2022/06/18 04:53:38;;;;;;;2.03;1.92;;;;;;;19.19;57.51;101087.34;5039189;28;20055;-80
2022/06/18 04:56:04;;;;;;;3.47;1.85;;;;;;;19.24;56.97;101092.44;5039035;28;20017;-80
2022/06/18 04:58:29;;;;;;;2.22;2.10;;;;;;;19.30;56.73;101100.09;5039102;28;20043;-80
2022/06/18 05:00:55;;;;;;;3.65;2.05;;;;;;;19.35;56.24;101098.09;5055364;28;20440;-80
2022/06/18 05:03:21;;;;;;;2.45;1.83;;;;;;;19.35;56.94;101100.75;5038623;28;20029;-79
2022/06/18 05:05:46;;;;;;;2.25;2.15;;;;;;;19.40;57.12;101111.09;5038603;28;20497;-80
2022/06/18 05:08:12;;;;;;;3.72;2.05;;;;;;;19.40;57.73;101103.16;5038830;28;20093;-81
2022/06/18 05:10:38;;;;;;;4.85;2.13;;;;;;;19.38;57.35;101102.41;5038706;28;20021;-79
2022/06/18 05:13:05;;;;;;;2.47;2.28;;;;;;;19.40;57.70;101098.75;5038587;28;20032;-79
2022/06/18 05:15:31;;;;;;;2.33;2.20;;;;;;;19.43;56.68;101114.47;5039176;28;20115;-80
2022/06/18 05:17:56;;;;;;;2.67;2.38;;;;;;;19.46;57.17;101104.69;5038674;28;20496;-80
2022/06/18 05:20:23;;;;;;;2.20;2.10;;;;;;;19.46;57.92;101110.84;5038542;28;20031;-81
2022/06/18 05:22:49;;;;;;;2.83;2.10;;;;;;;19.44;57.47;101110.03;5038406;28;20474;-80
2022/06/18 05:25:15;;;;;;;2.33;2.22;;;;;;;19.49;57.79;101102.75;5038631;28;20076;-80
2022/06/18 05:27:42;;;;;;;2.38;2.28;;;;;;;19.49;57.27;101097.44;5038365;28;20521;-80
2022/06/18 05:30:11;;;;;;;2.70;2.55;;;;;;;19.51;57.15;101092.94;5038357;28;20052;-80
2022/06/18 05:32:37;;;;;;;2.75;2.53;;;;;;;19.55;57.23;101093.63;5038544;28;20029;-80
2022/06/18 05:35:03;;;;;;;3.15;2.50;;;;;;;19.52;57.83;101089.34;5037994;28;20037;-80
2022/06/18 05:37:29;;;;;;;2.72;2.53;;;;;;;19.56;57.61;101080.31;5037856;28;20021;-80
2022/06/18 05:39:55;;;;;;;2.67;2.47;;;;;;;19.54;57.33;101092.78;5054484;28;20059;-79
2022/06/18 05:42:21;;;;;;;2.80;2.60;;;;;;;19.59;57.70;101071.34;5037822;28;20025;-80
2022/06/18 05:44:47;;;;;;;4.38;2.60;;;;;;;19.56;58.36;101079.47;5038144;28;20032;-79
2022/06/18 05:47:22;;;;;;;3.25;3.00;;;;;;;19.58;58.25;101073.16;5037982;28;20029;-80
2022/06/18 05:49:48;;;;;;;2.70;2.55;;;;;;;19.62;58.02;101070.34;5037949;28;20029;-79
2022/06/18 05:52:14;;;;;;;3.03;2.47;;;;;;;19.62;58.42;101068.59;5037167;28;20025;-79
2022/06/18 05:54:39;;;;;;;3.28;3.08;;;;;;;19.66;57.93;101064.84;5037710;28;20111;-79
2022/06/18 05:57:05;;;;;;;2.72;2.63;;;;;;;19.63;58.48;101070.28;5037579;28;20028;-80
2022/06/18 05:59:32;;;;;;;2.90;2.70;;;;;;;19.63;59.01;101064.97;5037003;28;20032;-79
2022/06/18 06:01:58;;;;;;;8.27;3.17;;;;;;;19.66;58.68;101061.31;5054079;28;20021;-80
2022/06/18 06:04:24;;;;;;;3.30;2.97;;;;;;;19.67;59.03;101063.91;5053521;28;20028;-80
2022/06/18 06:06:51;;;;;;;3.85;3.05;;;;;;;19.66;59.31;101075.47;5037335;28;20047;-80
2022/06/18 06:11:28;;;;;;;3.38;3.08;;;;;;;19.71;58.90;101065.47;5036863;28;20032;-80
2022/06/18 06:12:02;;;;;;;3.67;3.40;;;;;;;19.75;58.74;101074.97;5053747;28;20490;-80
2022/06/18 06:14:29;;;;;;;3.20;3.00;;;;;;;19.74;59.37;101070.63;5036807;28;20025;-80
2022/06/18 06:16:54;;;;;;;3.50;3.30;;;;;;;19.75;59.29;101064.38;5036889;28;20115;-80
2022/06/18 06:19:19;;;;;;;4.75;3.33;;;;;;;19.75;59.86;101064.38;5036760;28;20025;-80
2022/06/18 06:21:45;;;;;;;3.72;3.03;;;;;;;19.76;59.81;101071.41;5053428;28;20108;-80
2022/06/18 06:24:10;;;;;;;3.60;3.30;;;;;;;19.77;60.26;101066.97;5036703;28;20446;-79
2022/06/18 06:26:36;;;;;;;3.60;3.30;;;;;;;19.76;59.78;101071.41;5036635;28;20029;-80
2022/06/18 06:29:02;;;;;;;3.80;3.22;;;;;;;19.75;60.17;101074.13;5036751;28;20024;-80
2022/06/18 06:31:28;;;;;;;4.43;3.10;;;;;;;19.76;60.11;101066.09;5036343;28;20025;-79
2022/06/18 06:33:53;;;;;;;3.90;3.60;;;;;;;19.83;59.46;101071.16;5036997;28;20459;-79
2022/06/18 06:36:18;;;;;;;3.78;3.38;;;;;;;19.82;60.61;101075.56;5053349;28;20386;-79
2022/06/18 06:38:44;;;;;;;3.63;3.33;;;;;;;19.80;61.62;101076.59;5036733;28;20029;-79
2022/06/18 06:41:13;;;;;;;4.20;3.90;;;;;;;19.78;60.80;101081.94;5036319;28;20032;-79
2022/06/18 06:43:38;;;;;;;3.92;3.72;;;;;;;19.80;60.99;101081.88;5036448;28;20056;-79
2022/06/18 06:46:04;;;;;;;5.22;3.95;;;;;;;19.85;60.97;101080.75;5036539;28;20051;-80
2022/06/18 06:48:29;;;;;;;4.05;3.60;;;;;;;19.85;61.30;101077.22;5036358;28;20450;-80
2022/06/18 06:50:55;;;;;;;4.63;4.25;;;;;;;19.87;61.20;101083.31;5036723;28;20435;-81
2022/06/18 06:53:20;;;;;;;4.13;3.72;;;;;;;19.92;60.73;101073.34;5037251;28;20029;-81
2022/06/18 06:58:30;;;;;;;3.72;3.42;;;;;;;19.96;60.67;101066.97;5052468;28;20637;-81
2022/06/18 07:00:57;;;;;;;4.35;3.65;;;;;;;19.99;61.45;101071.22;5035799;28;20029;-80
2022/06/18 07:03:27;;;;;;;3.90;3.40;;;;;;;20.00;62.46;101065.88;5035999;28;20112;-79
2022/06/18 07:05:54;;;;;;;4.47;3.60;;;;;;;20.01;62.48;101074.69;5036204;28;20031;-79
2022/06/18 07:08:19;;;;;;;4.72;4.32;;;;;;;20.04;61.18;101082.47;5036114;28;20029;-80
2022/06/18 07:10:48;;;;;;;4.00;3.70;;;;;;;20.04;61.35;101080.69;5036202;28;20051;-80
2022/06/18 07:13:14;;;;;;;4.60;4.22;;;;;;;20.07;61.77;101096.44;5036344;28;20033;-80
2022/06/18 07:15:39;;;;;;;6.25;4.45;;;;;;;20.13;60.63;101084.66;5036280;28;20035;-81
2022/06/18 07:18:12;;;;;;;5.13;4.00;;;;;;;20.15;61.44;101092.53;5036079;28;20440;-80
2022/06/18 07:20:38;;;;;;;5.72;3.95;;;;;;;20.19;61.97;101097.63;5035890;28;20391;-79
2022/06/18 07:23:03;;;;;;;3.63;3.33;;;;;;;20.27;61.89;101107.84;5036181;28;20059;-80
2022/06/18 07:25:29;;;;;;;7.05;4.18;;;;;;;20.33;61.46;101096.06;5035958;28;20179;-80
2022/06/18 07:27:54;;;;;;;4.07;3.75;;;;;;;20.34;62.30;101096.00;5035545;28;20044;-80
2022/06/18 07:30:20;;;;;;;4.57;4.25;;;;;;;20.38;61.86;101102.00;5035678;28;20559;-80
2022/06/18 07:32:47;;;;;;;4.95;4.65;;;;;;;20.44;61.12;101099.88;5051814;28;20049;-80
2022/06/18 07:35:34;;;;;;;5.70;5.20;;;;;;;20.46;61.35;101104.25;5034865;28;20528;-80
2022/06/18 07:37:59;;;;;;;6.07;4.88;;;;;;;20.46;62.07;101101.59;5035024;28;20048;-79
2022/06/18 07:40:30;;;;;;;6.13;5.50;;;;;;;20.50;61.96;101108.47;5034862;28;20059;-80
2022/06/18 07:42:56;;;;;;;4.75;4.35;;;;;;;20.53;61.94;101103.00;5034765;28;20025;-80
2022/06/18 07:45:23;;;;;;;4.53;4.22;;;;;;;20.55;62.24;101111.75;5034808;28;20032;-79
2022/06/18 07:47:49;;;;;;;4.97;4.40;;;;;;;20.57;62.57;101093.94;5034450;28;20394;-80
2022/06/18 07:50:16;;;;;;;5.68;5.15;;;;;;;20.57;62.73;101091.28;5034794;28;20060;-79
2022/06/18 07:52:44;;;;;;;6.60;4.60;;;;;;;20.60;62.78;101093.78;5034639;28;20115;-80
2022/06/18 07:55:30;;;;;;;6.32;4.93;;;;;;;20.67;62.53;101083.69;5035002;28;20090;-80
2022/06/18 07:57:55;;;;;;;7.60;5.07;;;;;;;20.73;61.56;101105.50;5034363;28;20041;-79
2022/06/18 08:00:22;;;;;;;6.43;5.88;;;;;;;20.82;61.53;101098.00;5034630;28;20024;-79
2022/06/18 08:02:48;;;;;;;5.55;4.97;;;;;;;20.92;60.79;101088.63;5034813;28;20108;-79
2022/06/18 08:05:23;;;;;;;5.60;5.30;;;;;;;20.98;60.62;101098.88;5034491;28;20028;-79
2022/06/18 08:07:49;;;;;;;5.78;5.35;;;;;;;20.98;60.73;101093.56;5034303;28;20035;-79
2022/06/18 08:10:15;;;;;;;5.63;4.90;;;;;;;21.02;61.11;101104.91;5034237;28;20047;-79
2022/06/18 08:12:40;;;;;;;5.55;5.15;;;;;;;21.07;61.27;101101.06;5051175;28;20100;-79
2022/06/18 08:15:06;;;;;;;6.30;4.57;;;;;;;21.13;61.48;101102.53;5035225;28;20116;-79
2022/06/18 08:17:32;;;;;;;5.50;5.00;;;;;;;21.18;61.74;101099.63;5035142;28;20556;-79
2022/06/18 08:19:58;;;;;;;5.22;4.53;;;;;;;21.22;61.27;101104.69;5034818;28;20032;-79
2022/06/18 08:22:24;;;;;;;5.97;5.40;;;;;;;21.27;60.32;101093.81;5035664;28;20032;-79
2022/06/18 08:24:50;;;;;;;6.22;5.38;;;;;;;21.27;60.33;101110.59;5039068;28;20400;-79
2022/06/18 08:27:16;;;;;;;6.43;5.05;;;;;;;21.26;60.62;101100.06;5038522;28;20021;-79
2022/06/18 08:29:42;;;;;;;5.13;4.82;;;;;;;21.30;61.01;101106.94;5038486;28;20074;-79
2022/06/18 08:32:08;;;;;;;5.57;5.15;;;;;;;21.29;60.85;101091.91;5038388;28;20024;-79
2022/06/18 08:34:33;;;;;;;5.82;5.07;;;;;;;21.38;59.97;101102.03;5055261;28;20033;-80
2022/06/18 08:37:00;;;;;;;7.47;5.28;;;;;;;21.43;60.02;101094.69;5055628;28;20436;-80
2022/06/18 08:39:26;;;;;;;6.68;4.70;;;;;;;21.50;60.56;101094.31;5037973;28;20111;-79
2022/06/18 08:42:03;;;;;;;5.28;4.88;;;;;;;21.51;60.61;101096.06;5038582;28;20182;-81
2022/06/18 08:45:06;;;;;;;5.80;5.15;;;;;;;21.57;60.09;101096.59;5038522;28;20035;-79
2022/06/18 08:48:07;;;;;;;5.60;5.07;;;;;;;21.63;60.34;101094.53;5038152;28;20017;-80
2022/06/18 08:50:44;;;;;;;7.30;5.05;;;;;;;21.67;60.41;101096.94;5055083;28;20086;-80
2022/06/18 08:53:16;;;;;;;5.15;4.53;;;;;;;21.73;60.79;101101.03;5038192;28;20032;-79
2022/06/18 08:55:53;;;;;;;8.20;4.78;;;;;;;21.76;60.70;101096.41;5054708;28;20029;-80
2022/06/18 08:58:19;;;;;;;6.72;4.35;;;;;;;21.81;60.95;101104.13;5054259;28;20452;-80
2022/06/18 09:01:05;;;;;;;5.82;4.88;;;;;;;21.84;61.07;101103.09;5052436;28;20363;-79
2022/06/18 09:03:45;;;;;;;5.45;4.60;;;;;;;21.89;60.41;101109.00;5026731;28;20065;-79
2022/06/18 09:06:36;;;;;;;5.93;4.30;;;;;;;21.92;60.87;101117.69;5034314;28;20029;-80
2022/06/18 09:09:16;;;;;;;5.32;4.82;;;;;;;22.01;60.41;101110.09;5034250;28;20479;-80
2022/06/18 09:11:50;;;;;;;4.65;4.25;;;;;;;22.02;61.00;101128.63;5034129;28;20025;-79
2022/06/18 09:14:21;;;;;;;6.38;5.07;;;;;;;22.07;61.15;101115.94;5034206;28;20075;-79
2022/06/18 09:17:14;;;;;;;5.35;4.88;;;;;;;22.09;61.00;101124.66;5034222;28;20445;-79
2022/06/18 09:19:41;;;;;;;5.05;4.57;;;;;;;22.12;62.16;101121.81;5034187;28;20025;-80
2022/06/18 09:22:16;;;;;;;7.38;5.60;;;;;;;22.14;61.60;101118.22;5034287;28;20021;-80
2022/06/18 09:24:45;;;;;;;6.20;5.60;;;;;;;22.14;60.22;101123.53;5034142;28;20029;-79
2022/06/18 09:27:30;;;;;;;6.80;6.15;;;;;;;22.15;61.25;101135.91;5033845;28;20033;-79
2022/06/18 09:30:06;;;;;;;8.40;5.45;;;;;;;22.15;61.02;101127.91;5034024;28;20556;-79
2022/06/18 09:32:42;;;;;;;5.35;4.88;;;;;;;22.20;61.44;101125.84;5034393;28;20083;-79
2022/06/18 09:35:15;;;;;;;6.93;5.65;;;;;;;22.21;61.61;101127.53;5033109;28;20025;-79
2022/06/18 09:37:49;;;;;;;5.88;5.38;;;;;;;22.22;61.39;101135.47;5033813;28;20025;-79
2022/06/18 09:40:30;;;;;;;6.13;5.50;;;;;;;22.22;61.20;101134.59;5033853;28;20556;-79
2022/06/18 09:43:00;;;;;;;7.78;5.60;;;;;;;22.24;61.66;101138.03;5033580;28;20025;-79
2022/06/18 09:45:30;;;;;;;6.05;5.50;;;;;;;22.25;61.32;101145.91;5034975;28;20026;-78
2022/06/18 09:47:55;;;;;;;5.30;4.90;;;;;;;22.28;61.32;101139.56;5016701;28;20025;-79
2022/06/18 09:50:55;;;;;;;8.23;4.97;;;;;;;22.31;61.12;101139.38;5033674;28;20509;-79
2022/06/18 09:53:25;;;;;;;7.05;5.78;;;;;;;22.32;61.48;101146.41;5033718;22;20041;-80
2022/06/18 09:56:02;;;;;;;9.88;5.95;;;;;;;22.36;62.57;101148.00;5034959;28;20029;-79
2022/06/18 09:58:36;;;;;;;8.98;6.43;;;;;;;22.37;62.34;101144.34;5018606;28;20124;-79
2022/06/18 10:01:03;;;;;;;6.15;5.20;;;;;;;22.41;62.16;101147.69;5018152;28;20108;-79
2022/06/18 10:09:06;;;;;;;;;;;;;;;22.51;61.98;101151.56;5034979;28;20028;-79
2022/06/18 10:11:31;;;;;;;5.20;4.70;;;;;;;22.51;62.22;101153.34;5034105;28;19909;-80
2022/06/18 10:14:10;;;;;;;8.40;5.03;;;;;;;22.54;63.11;101153.19;5017355;28;20402;-79
2022/06/18 10:16:54;;;;;;;7.50;4.70;;;;;;;22.54;62.63;101148.69;5018562;28;20022;-79
2022/06/18 10:19:41;;;;;;;5.60;4.97;;;;;;;22.55;62.65;101158.41;5033314;28;20079;-79
2022/06/18 10:22:25;;;;;;;7.95;4.95;;;;;;;22.58;62.25;101158.22;5034694;28;20023;-80
2022/06/18 10:25:09;;;;;;;8.93;4.97;;;;;;;22.60;62.24;101166.09;5034211;28;20021;-79
2022/06/18 10:28:04;;;;;;;8.37;5.03;;;;;;;22.55;61.96;101169.06;5034238;28;20128;-80
2022/06/18 10:30:52;;;;;;;7.97;5.25;;;;;;;22.53;61.29;101175.41;5033734;28;20025;-79
2022/06/18 10:33:36;;;;;;;5.70;4.72;;;;;;;22.50;62.27;101176.44;5017984;28;20029;-79
2022/06/18 10:36:37;;;;;;;8.13;4.72;;;;;;;22.52;62.43;101189.66;5034125;28;20395;-79
2022/06/18 10:39:12;;;;;;;9.48;5.13;;;;;;;22.57;63.05;101190.25;5024449;28;20088;-79
2022/06/18 10:41:50;;;;;;;5.15;4.65;;;;;;;22.58;60.47;101178.66;5018188;28;20398;-79
2022/06/18 10:44:39;;;;;;;7.40;4.75;;;;;;;22.57;60.93;101174.28;5035243;28;20223;-79
2022/06/18 10:47:09;;;;;;;6.60;4.25;;;;;;;22.57;60.22;101176.94;5032573;28;20116;-80
2022/06/18 10:49:34;;;;;;;3.70;3.40;;;;;;;22.57;59.19;101177.78;5018799;28;20048;-79
2022/06/18 10:52:00;;;;;;;3.42;3.10;;;;;;;22.57;59.98;101179.59;5017531;28;20486;-80
2022/06/18 10:54:35;;;;;;;7.13;3.03;;;;;;;22.60;59.29;101176.75;5018295;28;20025;-79
2022/06/18 10:57:00;;;;;;;;;;;;;;;22.59;58.27;101185.69;5017789;28;20028;-79
2022/06/18 10:59:28;;;;;;;5.47;2.58;;;;;;;22.60;58.64;101184.75;5034291;28;20015;-80
2022/06/18 11:01:54;;;;;;;5.50;3.33;;;;;;;22.58;58.49;101184.00;5018296;28;20029;-79
2022/06/18 11:04:22;;;;;;;3.92;2.88;;;;;;;22.57;58.28;101182.25;5018076;28;20021;-79
2022/06/18 11:06:49;;;;;;;3.30;3.00;;;;;;;22.59;59.17;101186.56;5035763;28;20030;-79
2022/06/18 11:09:25;;;;;;;3.05;2.80;;;;;;;22.62;58.46;101174.88;5016887;28;20021;-79
2022/06/18 11:11:55;;;;;;;4.28;2.75;;;;;;;22.68;59.63;101173.66;5016564;28;20056;-79
2022/06/18 11:14:21;;;;;;;4.70;3.00;;;;;;;22.76;59.48;101182.03;5017099;28;20113;-79
2022/06/18 11:16:48;;;;;;;3.42;3.13;;;;;;;22.84;59.34;101179.75;5016236;28;20052;-79
2022/06/18 11:19:23;;;;;;;5.07;2.35;;;;;;;22.93;59.19;101173.00;5016548;28;20038;-80
2022/06/18 11:21:50;;;;;;;3.25;2.33;;;;;;;23.02;58.52;101167.13;5015722;28;20028;-79
2022/06/18 11:24:34;;;;;;;2.70;2.40;;;;;;;23.09;58.87;101173.78;5016157;28;20096;-80
2022/06/18 11:27:03;;;;;;;3.20;2.70;;;;;;;23.15;58.24;101169.06;5017055;28;20036;-80
2022/06/18 11:29:32;;;;;;;3.85;2.75;;;;;;;23.18;58.10;101171.53;5017704;28;20084;-79
2022/06/18 11:31:59;;;;;;;4.38;2.60;;;;;;;23.18;57.76;101176.84;5032767;28;20091;-80
2022/06/18 11:34:28;;;;;;;2.67;2.28;;;;;;;23.27;59.62;101176.28;5033269;28;20032;-80
2022/06/18 11:36:56;;;;;;;6.03;2.70;;;;;;;23.33;58.31;101169.72;5016726;28;20029;-80
2022/06/18 11:39:37;;;;;;;3.25;2.33;;;;;;;23.40;58.94;101171.91;5016383;28;20018;-79
2022/06/18 11:42:03;;;;;;;3.03;2.20;;;;;;;23.45;58.41;101179.59;5016724;28;20032;-79
2022/06/18 11:44:38;;;;;;;3.10;2.63;;;;;;;23.46;57.99;101179.53;5034155;28;20029;-80
2022/06/18 11:47:11;;;;;;;3.72;2.30;;;;;;;23.52;58.13;101180.97;5032518;28;20022;-79
2022/06/18 11:49:57;;;;;;;3.15;2.72;;;;;;;23.59;57.66;101173.44;5015752;28;20059;-80
2022/06/18 11:52:42;;;;;;;4.57;3.05;;;;;;;23.63;58.38;101162.47;5016504;28;20562;-80
2022/06/18 11:55:08;;;;;;;2.63;2.28;;;;;;;23.72;57.36;101161.00;5015216;28;20032;-79